createdAt,value
2022-12-31T00:00:23.322Z,9.711738
2022-12-31T00:01:23.279Z,9.711739
2022-12-31T00:02:23.358Z,9.711828
2022-12-31T00:03:23.361Z,9.711593
2022-12-31T00:04:23.267Z,9.711591
2022-12-31T00:05:23.265Z,9.711761
2022-12-31T00:06:23.246Z,9.711983
2022-12-31T00:07:23.240Z,9.711791
2022-12-31T00:08:23.222Z,9.711563
2022-12-31T00:09:23.219Z,9.711733
2022-12-31T00:10:23.203Z,9.711455
2022-12-31T00:11:23.215Z,9.711651
2022-12-31T00:12:23.224Z,9.711575
2022-12-31T00:13:23.174Z,9.711820
2022-12-31T00:14:24.176Z,9.711978
2022-12-31T00:15:23.170Z,9.712172
2022-12-31T00:16:23.214Z,9.712395
2022-12-31T00:17:23.169Z,9.712366
2022-12-31T00:18:23.160Z,9.712485
2022-12-31T00:19:23.151Z,9.711868
2022-12-31T00:20:23.145Z,9.711642
2022-12-31T00:21:23.128Z,9.711432
2022-12-31T00:22:23.122Z,9.711620
2022-12-31T00:23:23.112Z,9.711724
2022-12-31T00:24:23.106Z,9.711824
2022-12-31T00:25:23.091Z,9.711751
2022-12-31T00:37:13.708Z,9.711555
2022-12-31T00:38:12.823Z,9.711393
2022-12-31T00:39:13.810Z,9.711682
2022-12-31T00:40:12.813Z,9.711074
2022-12-31T00:41:12.789Z,9.711588
2022-12-31T00:42:12.805Z,9.711411
2022-12-31T00:43:12.791Z,9.711735
2022-12-31T00:44:12.769Z,9.711637
2022-12-31T00:45:12.763Z,9.711704
2022-12-31T00:46:12.816Z,9.711716
2022-12-31T00:47:12.759Z,9.711761
2022-12-31T00:48:12.738Z,9.711636
2022-12-31T00:49:12.729Z,9.711742
2022-12-31T00:50:12.730Z,9.711750
2022-12-31T00:51:12.709Z,9.711781
2022-12-31T00:52:12.708Z,9.711670
2022-12-31T00:53:12.689Z,9.711610
2022-12-31T00:54:13.704Z,9.711604
2022-12-31T00:55:14.261Z,9.711486
2022-12-31T00:56:12.673Z,9.711670
2022-12-31T00:57:13.196Z,9.711635
2022-12-31T00:58:16.210Z,9.711512
2022-12-31T00:59:12.668Z,9.711558
2022-12-31T01:00:12.640Z,9.711588
2022-12-31T01:01:12.844Z,9.711733
2022-12-31T01:02:12.906Z,9.711704
2022-12-31T01:03:12.682Z,9.711592
2022-12-31T01:04:13.258Z,9.711513
2022-12-31T01:05:12.591Z,9.711641
2022-12-31T01:06:12.588Z,9.711747
2022-12-31T01:07:12.575Z,9.711681
2022-12-31T01:08:12.576Z,9.711673
2022-12-31T01:09:12.579Z,9.711648
2022-12-31T01:10:12.563Z,9.711753
2022-12-31T01:11:12.540Z,9.711590
2022-12-31T01:12:12.538Z,9.711619
2022-12-31T01:13:12.550Z,9.711503
2022-12-31T01:14:12.524Z,9.711568
2022-12-31T01:15:12.520Z,9.711752
2022-12-31T01:16:12.548Z,9.711786
2022-12-31T01:17:12.513Z,9.711784
2022-12-31T01:18:13.188Z,9.711611
2022-12-31T01:19:12.549Z,9.711587
2022-12-31T01:20:12.483Z,9.711584
2022-12-31T01:21:12.489Z,9.711517
2022-12-31T01:22:12.465Z,9.712060
2022-12-31T01:23:14.187Z,9.712295
2022-12-31T01:24:12.456Z,9.712149
2022-12-31T01:25:12.432Z,9.712069
2022-12-31T01:26:12.455Z,9.711501
2022-12-31T01:27:12.411Z,9.711959
2022-12-31T01:28:12.423Z,9.711867
2022-12-31T01:29:14.280Z,9.711936
2022-12-31T01:30:12.390Z,9.711823
2022-12-31T01:31:12.414Z,9.711927
2022-12-31T01:32:12.389Z,9.711830
2022-12-31T01:33:12.361Z,9.711823
2022-12-31T01:34:16.197Z,9.711702
2022-12-31T01:35:12.361Z,9.711724
2022-12-31T01:36:12.362Z,9.711938
2022-12-31T01:37:12.331Z,9.711922
2022-12-31T01:38:12.318Z,9.711791
2022-12-31T01:39:12.321Z,9.711742
2022-12-31T01:40:12.291Z,9.711897
2022-12-31T01:41:13.295Z,9.712283
2022-12-31T01:42:12.303Z,9.711862
2022-12-31T01:43:12.277Z,9.711728
2022-12-31T01:44:12.298Z,9.711775
2022-12-31T01:45:12.265Z,9.711438
2022-12-31T01:46:12.292Z,9.711709
2022-12-31T01:47:12.242Z,9.712194
2022-12-31T01:48:12.241Z,9.711697
2022-12-31T01:49:12.242Z,9.711524
2022-12-31T01:50:13.233Z,9.712105
2022-12-31T01:51:12.219Z,9.712361
2022-12-31T01:52:12.217Z,9.712135
2022-12-31T01:53:12.208Z,9.711332
2022-12-31T01:54:12.201Z,9.712008
2022-12-31T01:55:12.187Z,9.711731
2022-12-31T01:56:12.180Z,9.711829
2022-12-31T01:57:12.174Z,9.712419
2022-12-31T01:58:12.168Z,9.711992
2022-12-31T01:59:12.162Z,9.712075
2022-12-31T02:00:12.145Z,9.711936
2022-12-31T02:01:12.165Z,9.711946
2022-12-31T02:02:12.736Z,9.711673
2022-12-31T02:03:12.175Z,9.712009
2022-12-31T02:04:12.115Z,9.711494
2022-12-31T02:05:12.117Z,9.711660
2022-12-31T02:06:12.099Z,9.711659
2022-12-31T02:07:12.103Z,9.711595
2022-12-31T02:08:12.077Z,9.711779
2022-12-31T02:09:12.089Z,9.711696
2022-12-31T02:10:12.117Z,9.711683
2022-12-31T02:11:12.081Z,9.711670
2022-12-31T02:12:12.063Z,9.711850
2022-12-31T02:13:12.055Z,9.711780
2022-12-31T02:14:12.051Z,9.711732
2022-12-31T02:15:12.033Z,9.711639
2022-12-31T02:16:12.080Z,9.711594
2022-12-31T02:17:12.028Z,9.711701
2022-12-31T02:18:12.007Z,9.711661
2022-12-31T02:19:11.996Z,9.711678
2022-12-31T02:20:12.001Z,9.711665
2022-12-31T02:21:11.979Z,9.711683
2022-12-31T02:22:11.969Z,9.711724
2022-12-31T02:23:11.965Z,9.711553
2022-12-31T02:24:11.954Z,9.711640
2022-12-31T02:25:12.011Z,9.711592
2022-12-31T02:26:11.955Z,9.711555
2022-12-31T02:27:12.883Z,9.711727
2022-12-31T02:28:11.928Z,9.711633
2022-12-31T02:29:12.667Z,9.711949
2022-12-31T02:30:12.930Z,9.711761
2022-12-31T02:31:11.921Z,9.711754
2022-12-31T02:32:12.633Z,9.711799
2022-12-31T02:33:12.888Z,9.711712
2022-12-31T02:34:11.873Z,9.711847
2022-12-31T02:35:11.872Z,9.711743
2022-12-31T02:36:11.855Z,9.711742
2022-12-31T02:37:11.856Z,9.711733
2022-12-31T02:38:11.849Z,9.711708
2022-12-31T02:39:11.828Z,9.711779
2022-12-31T02:40:11.828Z,9.711676
2022-12-31T02:41:11.813Z,9.711736
2022-12-31T02:42:11.817Z,9.711781
2022-12-31T02:43:11.787Z,9.711738
2022-12-31T02:44:12.787Z,9.711733
2022-12-31T02:45:11.804Z,9.711815
2022-12-31T02:46:11.875Z,9.711802
2022-12-31T02:47:11.760Z,9.711708
2022-12-31T02:48:12.291Z,9.711648
2022-12-31T02:49:11.746Z,9.711727
2022-12-31T02:50:11.749Z,9.711707
2022-12-31T02:51:11.751Z,9.711674
2022-12-31T02:52:11.729Z,9.711509
2022-12-31T03:03:19.026Z,9.711528
2022-12-31T03:04:19.026Z,9.711602
2022-12-31T03:05:19.024Z,9.711657
2022-12-31T03:06:19.001Z,9.711677
2022-12-31T03:07:18.991Z,9.711549
2022-12-31T03:08:18.992Z,9.711816
2022-12-31T03:09:19.866Z,9.711701
2022-12-31T03:10:18.966Z,9.711698
2022-12-31T03:11:18.956Z,9.711752
2022-12-31T03:12:18.946Z,9.711781
2022-12-31T03:13:18.961Z,9.711767
2022-12-31T03:14:18.943Z,9.711815
2022-12-31T03:15:18.926Z,9.711576
2022-12-31T03:16:19.922Z,9.711309
2022-12-31T03:17:18.928Z,9.711514
2022-12-31T03:18:18.913Z,9.711498
2022-12-31T03:19:18.898Z,9.711555
2022-12-31T03:20:18.903Z,9.711484
2022-12-31T03:21:18.879Z,9.711704
2022-12-31T03:22:18.874Z,9.711884
2022-12-31T03:23:18.867Z,9.711651
2022-12-31T03:24:18.878Z,9.711758
2022-12-31T03:25:18.848Z,9.711591
2022-12-31T03:26:18.837Z,9.711598
2022-12-31T03:27:18.829Z,9.711626
2022-12-31T03:28:18.823Z,9.711762
2022-12-31T03:29:18.815Z,9.711787
2022-12-31T03:30:18.821Z,9.711746
2022-12-31T03:31:18.990Z,9.711673
2022-12-31T03:32:18.788Z,9.711736
2022-12-31T03:33:18.785Z,9.711819
2022-12-31T03:34:18.773Z,9.711679
2022-12-31T03:35:18.772Z,9.712157
2022-12-31T03:36:18.758Z,9.712200
2022-12-31T03:37:18.751Z,9.712534
2022-12-31T03:38:18.748Z,9.712017
2022-12-31T03:39:18.735Z,9.712193
2022-12-31T03:40:18.740Z,9.711794
2022-12-31T03:41:18.710Z,9.711796
2022-12-31T03:42:18.712Z,9.711242
2022-12-31T03:43:18.709Z,9.711463
2022-12-31T03:44:19.455Z,9.711650
2022-12-31T03:45:18.691Z,9.711661
2022-12-31T03:46:18.703Z,9.711664
2022-12-31T03:47:18.670Z,9.711694
2022-12-31T03:48:18.681Z,9.711894
2022-12-31T03:49:18.662Z,9.711864
2022-12-31T03:50:18.672Z,9.712069
2022-12-31T03:51:18.646Z,9.711802
2022-12-31T03:52:18.641Z,9.711893
2022-12-31T03:53:18.633Z,9.711797
2022-12-31T03:54:18.622Z,9.711690
2022-12-31T03:55:18.605Z,9.711397
2022-12-31T03:56:18.615Z,9.711452
2022-12-31T03:57:18.595Z,9.711658
2022-12-31T03:58:18.588Z,9.711663
2022-12-31T03:59:18.575Z,9.711927
2022-12-31T04:00:18.578Z,9.711784
2022-12-31T04:01:18.696Z,9.711720
2022-12-31T04:02:20.925Z,9.711735
2022-12-31T04:03:20.577Z,9.711966
2022-12-31T04:04:18.565Z,9.711914
2022-12-31T04:05:19.378Z,9.711667
2022-12-31T04:06:18.517Z,9.711532
2022-12-31T04:07:18.524Z,9.711475
2022-12-31T04:08:18.512Z,9.711347
2022-12-31T04:09:19.463Z,9.711403
2022-12-31T04:10:18.494Z,9.711482
2022-12-31T04:11:21.012Z,9.711871
2022-12-31T04:12:19.503Z,9.711946
2022-12-31T04:13:18.460Z,9.711671
2022-12-31T04:14:18.465Z,9.711635
2022-12-31T04:15:18.472Z,9.711391
2022-12-31T04:16:18.480Z,9.711661
2022-12-31T04:17:18.444Z,9.711588
2022-12-31T04:18:18.439Z,9.711528
2022-12-31T04:19:18.430Z,9.711826
2022-12-31T04:20:18.413Z,9.712095
2022-12-31T04:21:18.409Z,9.712072
2022-12-31T04:22:18.393Z,9.711966
2022-12-31T04:23:18.419Z,9.711974
2022-12-31T04:24:18.377Z,9.711568
2022-12-31T04:25:18.375Z,9.711625
2022-12-31T04:26:18.344Z,9.711944
2022-12-31T04:27:19.339Z,9.712108
2022-12-31T04:28:18.345Z,9.711981
2022-12-31T04:29:18.341Z,9.712273
2022-12-31T04:30:18.329Z,9.712377
2022-12-31T04:31:18.340Z,9.712529
2022-12-31T04:32:18.314Z,9.712488
2022-12-31T04:33:18.304Z,9.712233
2022-12-31T04:34:18.289Z,9.712027
2022-12-31T04:35:18.279Z,9.711815
2022-12-31T04:36:18.275Z,9.712074
2022-12-31T04:37:18.275Z,9.711798
2022-12-31T04:38:18.262Z,9.711680
2022-12-31T04:39:18.253Z,9.711643
2022-12-31T04:40:18.238Z,9.711662
2022-12-31T04:41:18.239Z,9.711686
2022-12-31T04:42:18.308Z,9.711667
2022-12-31T04:43:18.216Z,9.711618
2022-12-31T04:44:18.209Z,9.711583
2022-12-31T04:45:18.209Z,9.711596
2022-12-31T04:46:18.241Z,9.711550
2022-12-31T04:47:23.411Z,9.711536
2022-12-31T04:48:20.175Z,9.711534
2022-12-31T04:49:18.163Z,9.711478
2022-12-31T04:50:18.169Z,9.711638
2022-12-31T04:51:18.159Z,9.711673
2022-12-31T04:52:18.146Z,9.711675
2022-12-31T04:53:18.140Z,9.711759
2022-12-31T04:54:18.131Z,9.711518
2022-12-31T04:55:18.117Z,9.711563
2022-12-31T04:56:18.133Z,9.711567
2022-12-31T04:57:18.103Z,9.711594
2022-12-31T04:58:18.100Z,9.711497
2022-12-31T04:59:18.128Z,9.711545
2022-12-31T05:00:18.093Z,9.711658
2022-12-31T05:01:18.160Z,9.711725
2022-12-31T05:02:18.261Z,9.711745
2022-12-31T05:03:18.092Z,9.711662
2022-12-31T05:04:18.047Z,9.711684
2022-12-31T05:05:18.048Z,9.711654
2022-12-31T05:06:18.037Z,9.711583
2022-12-31T05:07:18.025Z,9.711727
2022-12-31T05:08:18.116Z,9.711748
2022-12-31T05:09:18.020Z,9.711718
2022-12-31T05:10:18.007Z,9.711509
2022-12-31T05:11:17.996Z,9.711566
2022-12-31T05:12:17.982Z,9.711658
2022-12-31T05:13:17.973Z,9.711551
2022-12-31T05:14:17.978Z,9.711596
2022-12-31T05:15:17.959Z,9.711677
2022-12-31T05:16:18.016Z,9.711676
2022-12-31T05:17:17.952Z,9.711556
2022-12-31T05:18:17.929Z,9.711757
2022-12-31T05:19:18.079Z,9.711686
2022-12-31T05:20:17.923Z,9.712048
2022-12-31T05:21:17.915Z,9.712113
2022-12-31T05:22:17.904Z,9.712035
2022-12-31T05:23:17.893Z,9.711854
2022-12-31T05:24:17.891Z,9.711716
2022-12-31T05:25:17.889Z,9.711896
2022-12-31T05:26:17.893Z,9.711634
2022-12-31T05:27:17.869Z,9.711713
2022-12-31T05:28:18.411Z,9.711782
2022-12-31T05:29:17.852Z,9.711905
2022-12-31T05:30:17.839Z,9.712099
2022-12-31T05:31:17.890Z,9.711973
2022-12-31T05:32:17.830Z,9.711837
2022-12-31T05:33:17.813Z,9.711933
2022-12-31T05:34:17.809Z,9.711809
2022-12-31T05:35:17.809Z,9.712154
2022-12-31T05:36:17.791Z,9.712400
2022-12-31T05:37:17.790Z,9.712034
2022-12-31T05:38:17.804Z,9.712192
2022-12-31T05:39:17.770Z,9.712694
2022-12-31T05:40:17.776Z,9.712399
2022-12-31T05:41:17.775Z,9.712413
2022-12-31T05:42:17.740Z,9.712149
2022-12-31T05:43:17.729Z,9.711946
2022-12-31T05:44:17.724Z,9.711910
2022-12-31T05:45:17.730Z,9.711827
2022-12-31T05:46:17.740Z,9.711642
2022-12-31T05:47:17.696Z,9.711939
2022-12-31T05:48:17.695Z,9.711571
2022-12-31T05:49:17.693Z,9.712099
2022-12-31T05:50:17.674Z,9.711886
2022-12-31T05:51:17.676Z,9.711829
2022-12-31T05:52:17.658Z,9.711535
2022-12-31T05:53:17.644Z,9.711552
2022-12-31T05:54:17.639Z,9.711432
2022-12-31T05:55:17.641Z,9.711619
2022-12-31T05:56:17.633Z,9.711609
2022-12-31T05:57:17.623Z,9.711429
2022-12-31T05:58:17.627Z,9.711514
2022-12-31T05:59:17.610Z,9.711185
2022-12-31T06:00:17.619Z,9.711613
2022-12-31T06:01:17.629Z,9.711870
2022-12-31T06:02:17.616Z,9.711825
2022-12-31T06:03:18.733Z,9.711519
2022-12-31T06:04:17.572Z,9.711294
2022-12-31T06:05:22.478Z,9.711180
2022-12-31T06:06:19.589Z,9.711539
2022-12-31T06:07:17.541Z,9.711575
2022-12-31T06:08:17.535Z,9.711584
2022-12-31T06:09:17.527Z,9.711509
2022-12-31T06:10:17.554Z,9.711576
2022-12-31T06:11:17.520Z,9.711492
2022-12-31T06:12:17.500Z,9.711467
2022-12-31T06:13:17.505Z,9.711443
2022-12-31T06:14:17.485Z,9.711447
2022-12-31T06:15:17.993Z,9.711452
2022-12-31T06:16:17.575Z,9.711424
2022-12-31T06:17:17.473Z,9.711471
2022-12-31T06:18:17.456Z,9.711415
2022-12-31T06:19:17.451Z,9.711503
2022-12-31T06:20:17.451Z,9.711502
2022-12-31T06:21:17.437Z,9.711521
2022-12-31T06:22:17.422Z,9.711527
2022-12-31T06:23:17.412Z,9.711524
2022-12-31T06:24:17.434Z,9.711567
2022-12-31T06:25:17.402Z,9.711577
2022-12-31T06:26:17.399Z,9.711568
2022-12-31T06:27:17.381Z,9.711576
2022-12-31T06:28:20.392Z,9.711519
2022-12-31T06:29:18.515Z,9.711585
2022-12-31T06:30:17.355Z,9.711651
2022-12-31T06:31:17.384Z,9.711538
2022-12-31T06:32:17.349Z,9.711709
2022-12-31T06:33:17.333Z,9.711689
2022-12-31T06:34:17.331Z,9.711625
2022-12-31T06:35:17.317Z,9.711645
2022-12-31T06:36:17.313Z,9.711683
2022-12-31T06:37:17.322Z,9.711582
2022-12-31T06:38:17.305Z,9.711557
2022-12-31T06:39:17.277Z,9.711562
2022-12-31T06:40:17.296Z,9.711494
2022-12-31T06:41:17.267Z,9.711477
2022-12-31T06:42:17.259Z,9.711595
2022-12-31T06:43:17.259Z,9.711560
2022-12-31T06:44:17.933Z,9.711553
2022-12-31T06:45:17.242Z,9.711598
2022-12-31T06:46:17.320Z,9.711581
2022-12-31T06:47:17.225Z,9.711645
2022-12-31T06:48:17.218Z,9.711555
2022-12-31T06:49:17.206Z,9.711586
2022-12-31T06:50:17.207Z,9.711583
2022-12-31T06:51:17.743Z,9.711636
2022-12-31T06:52:18.186Z,9.711623
2022-12-31T06:53:17.177Z,9.711536
2022-12-31T06:54:17.168Z,9.711616
2022-12-31T06:55:17.161Z,9.711618
2022-12-31T06:56:17.166Z,9.711462
2022-12-31T06:57:17.152Z,9.711651
2022-12-31T06:58:17.133Z,9.711662
2022-12-31T06:59:17.135Z,9.711607
2022-12-31T07:00:17.115Z,9.711738
2022-12-31T07:01:17.241Z,9.711618
2022-12-31T07:02:17.164Z,9.711658
2022-12-31T07:03:17.123Z,9.711715
2022-12-31T07:04:17.105Z,9.711678
2022-12-31T07:05:17.080Z,9.711601
2022-12-31T07:06:17.075Z,9.711742
2022-12-31T07:07:17.059Z,9.711843
2022-12-31T07:08:17.067Z,9.712243
2022-12-31T07:09:17.053Z,9.712405
2022-12-31T07:10:17.053Z,9.712461
2022-12-31T07:11:17.040Z,9.712619
2022-12-31T07:12:17.021Z,9.712690
2022-12-31T07:13:17.023Z,9.712542
2022-12-31T07:14:17.021Z,9.712467
2022-12-31T07:15:17.008Z,9.712387
2022-12-31T07:16:17.068Z,9.712455
2022-12-31T07:17:17.032Z,9.712307
2022-12-31T07:18:16.987Z,9.712122
2022-12-31T07:19:16.979Z,9.712244
2022-12-31T07:20:16.997Z,9.712372
2022-12-31T07:21:17.937Z,9.712463
2022-12-31T07:22:16.947Z,9.712234
2022-12-31T07:23:17.061Z,9.712136
2022-12-31T07:24:16.940Z,9.712043
2022-12-31T07:25:18.396Z,9.712277
2022-12-31T07:26:16.929Z,9.712139
2022-12-31T07:27:16.910Z,9.711772
2022-12-31T07:28:17.436Z,9.711775
2022-12-31T07:29:16.906Z,9.711771
2022-12-31T07:30:16.948Z,9.711706
2022-12-31T07:31:16.977Z,9.711698
2022-12-31T07:32:16.882Z,9.711707
2022-12-31T07:33:16.880Z,9.711771
2022-12-31T07:34:16.852Z,9.711725
2022-12-31T07:35:16.860Z,9.711676
2022-12-31T07:36:16.849Z,9.711638
2022-12-31T07:37:16.835Z,9.711683
2022-12-31T07:38:16.952Z,9.711644
2022-12-31T07:39:17.437Z,9.711611
2022-12-31T07:40:16.812Z,9.711659
2022-12-31T07:41:16.825Z,9.711620
2022-12-31T07:42:16.789Z,9.711645
2022-12-31T07:43:16.788Z,9.711760
2022-12-31T07:44:16.786Z,9.711687
2022-12-31T07:45:16.783Z,9.711634
2022-12-31T07:46:16.803Z,9.711609
2022-12-31T07:47:16.753Z,9.711656
2022-12-31T07:48:16.747Z,9.711676
2022-12-31T07:49:16.740Z,9.711653
2022-12-31T07:50:16.756Z,9.711624
2022-12-31T07:51:16.717Z,9.711596
2022-12-31T07:52:16.732Z,9.711701
2022-12-31T07:53:16.710Z,9.711685
2022-12-31T07:54:16.704Z,9.711740
2022-12-31T07:55:17.449Z,9.711560
2022-12-31T07:56:16.678Z,9.711689
2022-12-31T07:57:16.668Z,9.711632
2022-12-31T07:58:16.684Z,9.711677
2022-12-31T07:59:22.448Z,9.711611
2022-12-31T08:00:18.650Z,9.711836
2022-12-31T08:01:16.710Z,9.711557
2022-12-31T08:02:17.528Z,9.711745
2022-12-31T08:03:16.632Z,9.711711
2022-12-31T08:04:16.620Z,9.711659
2022-12-31T08:05:16.611Z,9.711651
2022-12-31T08:06:16.602Z,9.711694
2022-12-31T08:07:16.601Z,9.711587
2022-12-31T08:08:16.584Z,9.711616
2022-12-31T08:09:16.575Z,9.711751
2022-12-31T08:10:18.282Z,9.711945
2022-12-31T08:11:17.556Z,9.711585
2022-12-31T08:12:16.558Z,9.711658
2022-12-31T08:13:16.548Z,9.711731
2022-12-31T08:14:16.538Z,9.711709
2022-12-31T08:15:17.523Z,9.711638
2022-12-31T08:16:16.719Z,9.711654
2022-12-31T08:17:16.515Z,9.711618
2022-12-31T08:18:17.454Z,9.711692
2022-12-31T08:19:16.506Z,9.711612
2022-12-31T08:20:16.498Z,9.711690
2022-12-31T08:21:16.491Z,9.711618
2022-12-31T08:22:16.482Z,9.711547
2022-12-31T08:23:16.463Z,9.711502
2022-12-31T08:24:16.465Z,9.711520
2022-12-31T08:25:16.471Z,9.711592
2022-12-31T08:26:16.438Z,9.711563
2022-12-31T08:27:16.454Z,9.711703
2022-12-31T08:28:16.421Z,9.711745
2022-12-31T08:29:16.424Z,9.711643
2022-12-31T08:30:16.432Z,9.711635
2022-12-31T08:31:16.463Z,9.711556
2022-12-31T08:32:16.393Z,9.711769
2022-12-31T08:33:16.383Z,9.711803
2022-12-31T08:34:16.383Z,9.711885
2022-12-31T08:35:17.052Z,9.712023
2022-12-31T08:36:16.402Z,9.711924
2022-12-31T08:37:16.366Z,9.711814
2022-12-31T08:38:16.349Z,9.711644
2022-12-31T08:39:16.342Z,9.711765
2022-12-31T08:40:16.336Z,9.711631
2022-12-31T08:41:16.332Z,9.711673
2022-12-31T08:42:16.319Z,9.711727
2022-12-31T08:43:16.311Z,9.711882
2022-12-31T08:44:16.301Z,9.711713
2022-12-31T08:45:17.036Z,9.711793
2022-12-31T08:46:19.964Z,9.711696
2022-12-31T08:47:16.284Z,9.711679
2022-12-31T08:48:16.290Z,9.711714
2022-12-31T08:49:17.091Z,9.711724
2022-12-31T08:50:16.275Z,9.711920
2022-12-31T08:51:17.037Z,9.711876
2022-12-31T08:52:16.250Z,9.712007
2022-12-31T08:53:16.245Z,9.711721
2022-12-31T08:54:16.237Z,9.711655
2022-12-31T08:55:16.214Z,9.711811
2022-12-31T08:56:16.221Z,9.711908
2022-12-31T08:57:16.235Z,9.711750
2022-12-31T08:58:20.558Z,9.711468
2022-12-31T08:59:16.197Z,9.711462
2022-12-31T09:00:16.362Z,9.711787
2022-12-31T09:01:16.215Z,9.711688
2022-12-31T09:02:16.211Z,9.711571
2022-12-31T09:03:16.162Z,9.711829
2022-12-31T09:04:16.235Z,9.711715
2022-12-31T09:05:16.138Z,9.711889
2022-12-31T09:06:16.136Z,9.711763
2022-12-31T09:07:16.148Z,9.711762
2022-12-31T09:08:16.124Z,9.711583
2022-12-31T09:09:16.150Z,9.711576
2022-12-31T09:10:16.247Z,9.711597
2022-12-31T09:11:22.532Z,9.711666
2022-12-31T09:12:18.090Z,9.711692
2022-12-31T09:13:16.084Z,9.711633
2022-12-31T09:14:16.093Z,9.711612
2022-12-31T09:15:16.061Z,9.711627
2022-12-31T09:16:16.082Z,9.711630
2022-12-31T09:17:16.126Z,9.711618
2022-12-31T09:18:16.043Z,9.711601
2022-12-31T09:19:17.047Z,9.711586
2022-12-31T09:20:16.085Z,9.711596
2022-12-31T09:21:16.052Z,9.711600
2022-12-31T09:22:16.000Z,9.711652
2022-12-31T09:23:16.003Z,9.711630
2022-12-31T09:24:15.992Z,9.711665
2022-12-31T09:25:15.999Z,9.711623
2022-12-31T09:26:15.978Z,9.711615
2022-12-31T09:27:15.981Z,9.711585
2022-12-31T09:28:16.008Z,9.711594
2022-12-31T09:29:15.959Z,9.711677
2022-12-31T09:30:17.547Z,9.711673
2022-12-31T09:31:15.990Z,9.711627
2022-12-31T09:32:15.921Z,9.711631
2022-12-31T09:33:15.914Z,9.711591
2022-12-31T09:34:15.924Z,9.711665
2022-12-31T09:35:15.906Z,9.711626
2022-12-31T09:36:15.894Z,9.711662
2022-12-31T09:37:15.889Z,9.711669
2022-12-31T09:38:15.883Z,9.711714
2022-12-31T09:39:15.869Z,9.711634
2022-12-31T09:40:15.867Z,9.711674
2022-12-31T09:41:15.863Z,9.711569
2022-12-31T09:42:15.852Z,9.711673
2022-12-31T09:43:15.835Z,9.711624
2022-12-31T09:44:15.824Z,9.711512
2022-12-31T09:45:15.858Z,9.711719
2022-12-31T09:46:15.851Z,9.711743
2022-12-31T09:47:15.806Z,9.711891
2022-12-31T09:48:15.802Z,9.712020
2022-12-31T09:49:15.800Z,9.711965
2022-12-31T09:50:15.790Z,9.712278
2022-12-31T09:51:19.161Z,9.711911
2022-12-31T09:52:17.577Z,9.711853
2022-12-31T09:53:15.759Z,9.712022
2022-12-31T09:54:16.488Z,9.712060
2022-12-31T09:55:15.745Z,9.712122
2022-12-31T09:56:15.756Z,9.711830
2022-12-31T09:57:16.631Z,9.711865
2022-12-31T09:58:15.722Z,9.712090
2022-12-31T09:59:15.728Z,9.711852
2022-12-31T10:00:15.701Z,9.712161
2022-12-31T10:01:15.777Z,9.712307
2022-12-31T10:02:16.643Z,9.712296
2022-12-31T10:03:15.785Z,9.712108
2022-12-31T10:04:15.697Z,9.711932
2022-12-31T10:05:16.571Z,9.712096
2022-12-31T10:06:15.664Z,9.712252
2022-12-31T10:07:15.653Z,9.712234
2022-12-31T10:08:16.491Z,9.712321
2022-12-31T10:09:15.650Z,9.711965
2022-12-31T10:10:15.624Z,9.711984
2022-12-31T10:11:15.606Z,9.711971
2022-12-31T10:12:15.640Z,9.712096
2022-12-31T10:13:15.595Z,9.711791
2022-12-31T10:14:17.483Z,9.711808
2022-12-31T10:15:15.569Z,9.711730
2022-12-31T10:16:15.588Z,9.711954
2022-12-31T10:17:15.557Z,9.711993
2022-12-31T10:18:15.599Z,9.711847
2022-12-31T10:19:15.562Z,9.711814
2022-12-31T10:20:15.542Z,9.711721
2022-12-31T10:21:15.545Z,9.711774
2022-12-31T10:22:16.063Z,9.711771
2022-12-31T10:23:18.070Z,9.711752
2022-12-31T10:24:15.507Z,9.711784
2022-12-31T10:25:15.544Z,9.711774
2022-12-31T10:26:15.497Z,9.711783
2022-12-31T10:27:15.492Z,9.711731
2022-12-31T10:28:17.514Z,9.711645
2022-12-31T10:29:15.463Z,9.711625
2022-12-31T10:30:15.485Z,9.711660
2022-12-31T10:31:15.525Z,9.711644
2022-12-31T10:32:15.456Z,9.711668
2022-12-31T10:33:16.017Z,9.711662
2022-12-31T10:34:15.438Z,9.711634
2022-12-31T10:35:18.018Z,9.711576
2022-12-31T10:36:15.419Z,9.711573
2022-12-31T10:37:15.412Z,9.711605
2022-12-31T10:38:15.401Z,9.711642
2022-12-31T10:39:20.568Z,9.711693
2022-12-31T10:40:17.457Z,9.711644
2022-12-31T10:41:15.397Z,9.711630
2022-12-31T10:42:15.374Z,9.711623
2022-12-31T10:43:15.355Z,9.711678
2022-12-31T10:44:15.362Z,9.711694
2022-12-31T10:45:15.345Z,9.711671
2022-12-31T10:46:22.466Z,9.711687
2022-12-31T10:47:17.324Z,9.711671
2022-12-31T10:48:15.317Z,9.711720
2022-12-31T10:49:15.310Z,9.711687
2022-12-31T10:50:15.310Z,9.711675
2022-12-31T10:51:15.313Z,9.711691
2022-12-31T10:52:15.305Z,9.711667
2022-12-31T10:53:15.281Z,9.711587
2022-12-31T10:54:15.292Z,9.711739
2022-12-31T10:55:15.284Z,9.711560
2022-12-31T10:56:15.252Z,9.711617
2022-12-31T10:57:15.257Z,9.711757
2022-12-31T10:58:15.239Z,9.711652
2022-12-31T10:59:15.230Z,9.711733
2022-12-31T11:00:15.224Z,9.711632
2022-12-31T11:01:15.271Z,9.711645
2022-12-31T11:02:15.478Z,9.711666
2022-12-31T11:03:15.236Z,9.711550
2022-12-31T11:04:15.202Z,9.711548
2022-12-31T11:05:15.189Z,9.711621
2022-12-31T11:06:15.181Z,9.711593
2022-12-31T11:07:15.164Z,9.711623
2022-12-31T11:08:15.157Z,9.711712
2022-12-31T11:09:15.158Z,9.711616
2022-12-31T11:18:24.326Z,9.711603
2022-12-31T11:19:24.318Z,9.711676
2022-12-31T11:20:24.310Z,9.711657
2022-12-31T11:21:28.190Z,9.711745
2022-12-31T11:22:25.304Z,9.711760
2022-12-31T11:23:24.306Z,9.711777
2022-12-31T11:24:57.398Z,9.711737
2022-12-31T11:25:24.286Z,9.711765
2022-12-31T11:26:24.261Z,9.711648
2022-12-31T11:27:24.254Z,9.711968
2022-12-31T11:28:24.290Z,9.712031
2022-12-31T11:29:24.239Z,9.712312
2022-12-31T11:30:24.235Z,9.712121
2022-12-31T11:31:24.965Z,9.711668
2022-12-31T11:32:24.262Z,9.711881
2022-12-31T11:33:24.211Z,9.711980
2022-12-31T11:34:24.200Z,9.711862
2022-12-31T11:35:24.200Z,9.711805
2022-12-31T11:36:24.190Z,9.711829
2022-12-31T11:41:33.315Z,9.711729
2022-12-31T11:42:31.524Z,9.711613
2022-12-31T11:43:31.516Z,9.711652
2022-12-31T11:44:31.501Z,9.711615
2022-12-31T11:45:31.522Z,9.711634
2022-12-31T11:46:31.550Z,9.711643
2022-12-31T11:47:31.490Z,9.711656
2022-12-31T11:48:32.399Z,9.711684
2022-12-31T11:49:31.472Z,9.711683
2022-12-31T11:50:31.464Z,9.711673
2022-12-31T11:51:31.461Z,9.711675
2022-12-31T11:52:31.453Z,9.711683
2022-12-31T11:53:31.443Z,9.711604
2022-12-31T11:54:31.431Z,9.711551
2022-12-31T11:55:31.417Z,9.711630
2022-12-31T11:56:31.437Z,9.711707
2022-12-31T11:57:31.429Z,9.711664
2022-12-31T11:58:31.948Z,9.711675
2022-12-31T11:59:31.402Z,9.711695
2022-12-31T12:00:31.382Z,9.711686
2022-12-31T12:01:31.435Z,9.711659
2022-12-31T12:02:31.413Z,9.711638
2022-12-31T12:03:31.404Z,9.711609
2022-12-31T12:04:31.351Z,9.711637
2022-12-31T12:05:31.356Z,9.711591
2022-12-31T12:06:31.331Z,9.711642
2022-12-31T12:07:31.333Z,9.711629
2022-12-31T12:08:31.904Z,9.711653
2022-12-31T12:09:31.895Z,9.711679
2022-12-31T12:10:36.176Z,9.711654
2022-12-31T12:11:33.287Z,9.711467
2022-12-31T12:12:31.909Z,9.711600
2022-12-31T12:13:31.279Z,9.711597
2022-12-31T12:14:31.288Z,9.711665
2022-12-31T12:15:32.926Z,9.711650
2022-12-31T12:16:31.321Z,9.711617
2022-12-31T12:17:31.248Z,9.711666